sensor_id;sensor_type;location;lat;lon;timestamp;pressure;altitude;pressure_sealevel;temperature;humidity
65173;BME280;69059;52.218;5.172;2023-04-22T00:00:06;98891.13;;;8.97;100.00
65173;BME280;69059;52.218;5.172;2023-04-22T00:02:36;98875.56;;;8.90;100.00
65173;BME280;69059;52.218;5.172;2023-04-22T00:05:06;98865.13;;;8.90;100.00
65173;BME280;69059;52.218;5.172;2023-04-22T00:07:34;98860.72;;;8.91;100.00
65173;BME280;69059;52.218;5.172;2023-04-22T00:10:03;98850.91;;;8.93;100.00
65173;BME280;69059;52.218;5.172;2023-04-22T00:12:31;98851.72;;;8.93;100.00
65173;BME280;69059;52.218;5.172;2023-04-22T00:14:59;98850.53;;;8.89;100.00
65173;BME280;69059;52.218;5.172;2023-04-22T00:17:27;98824.41;;;8.59;100.00
65173;BME280;69059;52.218;5.172;2023-04-22T00:19:56;98852.63;;;8.81;100.00
65173;BME280;69059;52.218;5.172;2023-04-22T00:22:24;98850.44;;;8.78;100.00
65173;BME280;69059;52.218;5.172;2023-04-22T00:24:52;98849.84;;;8.76;100.00
65173;BME280;69059;52.218;5.172;2023-04-22T00:27:20;98852.31;;;8.71;100.00
65173;BME280;69059;52.218;5.172;2023-04-22T00:29:47;98840.38;;;8.63;100.00
65173;BME280;69059;52.218;5.172;2023-04-22T00:32:15;98854.16;;;8.63;100.00
65173;BME280;69059;52.218;5.172;2023-04-22T00:34:43;98860.75;;;8.66;100.00
65173;BME280;69059;52.218;5.172;2023-04-22T00:37:12;98846.53;;;8.69;100.00
65173;BME280;69059;52.218;5.172;2023-04-22T00:39:39;98857.16;;;8.67;100.00
65173;BME280;69059;52.218;5.172;2023-04-22T00:42:08;98869.78;;;8.63;100.00
65173;BME280;69059;52.218;5.172;2023-04-22T00:44:36;98871.78;;;8.61;100.00
65173;BME280;69059;52.218;5.172;2023-04-22T00:47:03;98870.84;;;8.56;100.00
65173;BME280;69059;52.218;5.172;2023-04-22T00:49:33;98876.06;;;8.56;100.00
65173;BME280;69059;52.218;5.172;2023-04-22T00:52:02;98886.28;;;8.51;100.00
65173;BME280;69059;52.218;5.172;2023-04-22T00:54:31;98892.75;;;8.42;100.00
65173;BME280;69059;52.218;5.172;2023-04-22T00:57:01;98870.44;;;8.34;100.00
65173;BME280;69059;52.218;5.172;2023-04-22T00:59:29;98887.97;;;8.39;100.00
65173;BME280;69059;52.218;5.172;2023-04-22T01:01:57;98887.63;;;8.35;100.00
65173;BME280;69059;52.218;5.172;2023-04-22T01:04:25;98888.03;;;8.32;100.00
65173;BME280;69059;52.218;5.172;2023-04-22T01:06:53;98890.22;;;8.28;100.00
65173;BME280;69059;52.218;5.172;2023-04-22T01:09:21;98896.44;;;8.27;100.00
65173;BME280;69059;52.218;5.172;2023-04-22T01:11:50;98899.88;;;8.21;100.00
65173;BME280;69059;52.218;5.172;2023-04-22T01:14:18;98895.69;;;8.20;100.00
65173;BME280;69059;52.218;5.172;2023-04-22T01:16:46;98884.72;;;8.12;100.00
65173;BME280;69059;52.218;5.172;2023-04-22T01:19:13;98878.91;;;8.16;100.00
65173;BME280;69059;52.218;5.172;2023-04-22T01:21:42;98862.97;;;8.06;100.00
65173;BME280;69059;52.218;5.172;2023-04-22T01:24:13;98866.69;;;8.17;100.00
65173;BME280;69059;52.218;5.172;2023-04-22T01:26:41;98859.16;;;8.09;100.00
65173;BME280;69059;52.218;5.172;2023-04-22T01:29:08;98869.34;;;8.10;100.00
65173;BME280;69059;52.218;5.172;2023-04-22T01:31:36;98879.50;;;8.12;100.00
65173;BME280;69059;52.218;5.172;2023-04-22T01:34:05;98882.91;;;8.12;100.00
65173;BME280;69059;52.218;5.172;2023-04-22T01:36:32;98887.56;;;8.10;100.00
65173;BME280;69059;52.218;5.172;2023-04-22T01:39:00;98895.34;;;8.10;100.00
65173;BME280;69059;52.218;5.172;2023-04-22T01:41:30;98912.16;;;8.08;100.00
65173;BME280;69059;52.218;5.172;2023-04-22T01:43:59;98921.34;;;8.04;100.00
65173;BME280;69059;52.218;5.172;2023-04-22T01:46:29;98929.19;;;7.97;100.00
65173;BME280;69059;52.218;5.172;2023-04-22T01:48:56;98933.00;;;7.95;100.00
65173;BME280;69059;52.218;5.172;2023-04-22T01:51:24;98950.81;;;7.91;100.00
65173;BME280;69059;52.218;5.172;2023-04-22T01:53:52;98956.19;;;7.89;100.00
65173;BME280;69059;52.218;5.172;2023-04-22T01:56:20;98951.00;;;7.89;100.00
65173;BME280;69059;52.218;5.172;2023-04-22T01:58:49;98956.41;;;7.88;100.00
65173;BME280;69059;52.218;5.172;2023-04-22T02:01:17;98968.41;;;7.89;100.00
65173;BME280;69059;52.218;5.172;2023-04-22T02:03:45;98960.19;;;7.85;100.00
65173;BME280;69059;52.218;5.172;2023-04-22T02:06:12;98970.22;;;7.82;100.00
65173;BME280;69059;52.218;5.172;2023-04-22T02:08:40;98986.41;;;7.77;100.00
65173;BME280;69059;52.218;5.172;2023-04-22T02:11:08;98986.63;;;7.76;100.00
65173;BME280;69059;52.218;5.172;2023-04-22T02:13:36;98983.41;;;7.74;100.00
65173;BME280;69059;52.218;5.172;2023-04-22T02:16:06;98986.44;;;7.71;100.00
65173;BME280;69059;52.218;5.172;2023-04-22T02:18:34;98986.84;;;7.68;100.00
65173;BME280;69059;52.218;5.172;2023-04-22T02:21:02;98993.84;;;7.67;100.00
65173;BME280;69059;52.218;5.172;2023-04-22T02:23:30;98993.03;;;7.67;100.00
65173;BME280;69059;52.218;5.172;2023-04-22T02:25:58;98996.03;;;7.64;100.00
65173;BME280;69059;52.218;5.172;2023-04-22T02:28:26;98994.47;;;7.56;100.00
65173;BME280;69059;52.218;5.172;2023-04-22T02:30:54;98981.13;;;7.39;100.00
65173;BME280;69059;52.218;5.172;2023-04-22T02:33:23;98980.31;;;7.45;100.00
65173;BME280;69059;52.218;5.172;2023-04-22T02:35:51;98971.13;;;7.43;100.00
65173;BME280;69059;52.218;5.172;2023-04-22T02:38:19;98968.34;;;7.44;100.00
65173;BME280;69059;52.218;5.172;2023-04-22T02:40:46;98955.53;;;7.49;100.00
65173;BME280;69059;52.218;5.172;2023-04-22T02:43:14;98950.75;;;7.46;100.00
65173;BME280;69059;52.218;5.172;2023-04-22T02:45:42;98944.56;;;7.41;100.00
65173;BME280;69059;52.218;5.172;2023-04-22T02:48:10;98955.94;;;7.40;100.00
65173;BME280;69059;52.218;5.172;2023-04-22T02:50:39;98951.97;;;7.37;100.00
65173;BME280;69059;52.218;5.172;2023-04-22T02:53:06;98946.97;;;7.36;100.00
65173;BME280;69059;52.218;5.172;2023-04-22T02:55:34;98957.78;;;7.33;100.00
65173;BME280;69059;52.218;5.172;2023-04-22T02:58:02;98948.59;;;7.24;100.00
65173;BME280;69059;52.218;5.172;2023-04-22T03:00:30;98957.16;;;7.31;100.00
65173;BME280;69059;52.218;5.172;2023-04-22T03:02:57;98963.38;;;7.30;100.00
65173;BME280;69059;52.218;5.172;2023-04-22T03:05:26;98976.13;;;7.25;100.00
65173;BME280;69059;52.218;5.172;2023-04-22T03:07:55;98958.38;;;7.22;100.00
65173;BME280;69059;52.218;5.172;2023-04-22T03:10:22;98968.38;;;7.18;100.00
65173;BME280;69059;52.218;5.172;2023-04-22T03:12:50;98975.97;;;7.19;100.00
65173;BME280;69059;52.218;5.172;2023-04-22T03:15:18;98966.97;;;7.15;100.00
65173;BME280;69059;52.218;5.172;2023-04-22T03:17:47;98972.56;;;7.12;100.00
65173;BME280;69059;52.218;5.172;2023-04-22T03:20:15;98967.56;;;7.11;100.00
65173;BME280;69059;52.218;5.172;2023-04-22T03:22:43;98966.75;;;7.10;100.00
65173;BME280;69059;52.218;5.172;2023-04-22T03:25:12;98953.59;;;6.99;100.00
65173;BME280;69059;52.218;5.172;2023-04-22T03:27:39;98971.16;;;7.10;100.00
65173;BME280;69059;52.218;5.172;2023-04-22T03:30:08;98968.34;;;7.11;100.00
65173;BME280;69059;52.218;5.172;2023-04-22T03:32:35;98969.97;;;7.06;100.00
65173;BME280;69059;52.218;5.172;2023-04-22T03:35:04;98958.78;;;7.05;100.00
65173;BME280;69059;52.218;5.172;2023-04-22T03:37:31;98942.41;;;6.98;100.00
65173;BME280;69059;52.218;5.172;2023-04-22T03:39:59;98931.84;;;7.00;100.00
65173;BME280;69059;52.218;5.172;2023-04-22T03:42:28;98921.88;;;7.03;100.00
65173;BME280;69059;52.218;5.172;2023-04-22T03:44:56;98896.31;;;7.00;100.00
65173;BME280;69059;52.218;5.172;2023-04-22T03:47:24;98894.91;;;6.98;100.00
65173;BME280;69059;52.218;5.172;2023-04-22T03:49:52;98881.94;;;6.98;100.00
65173;BME280;69059;52.218;5.172;2023-04-22T03:52:19;98869.56;;;7.00;100.00
65173;BME280;69059;52.218;5.172;2023-04-22T03:54:47;98858.19;;;7.01;100.00
65173;BME280;69059;52.218;5.172;2023-04-22T03:57:15;98862.78;;;7.05;100.00
65173;BME280;69059;52.218;5.172;2023-04-22T03:59:44;98850.81;;;7.04;100.00
65173;BME280;69059;52.218;5.172;2023-04-22T04:02:11;98844.03;;;7.03;100.00
65173;BME280;69059;52.218;5.172;2023-04-22T04:04:39;98834.06;;;7.07;100.00
65173;BME280;69059;52.218;5.172;2023-04-22T04:07:07;98829.47;;;7.09;100.00
65173;BME280;69059;52.218;5.172;2023-04-22T04:09:35;98831.03;;;7.10;100.00
65173;BME280;69059;52.218;5.172;2023-04-22T04:12:04;98835.25;;;7.04;100.00
65173;BME280;69059;52.218;5.172;2023-04-22T04:14:31;98827.47;;;7.04;100.00
65173;BME280;69059;52.218;5.172;2023-04-22T04:17:00;98834.25;;;7.05;100.00
65173;BME280;69059;52.218;5.172;2023-04-22T04:19:29;98817.53;;;6.95;100.00
65173;BME280;69059;52.218;5.172;2023-04-22T04:21:56;98826.66;;;7.04;100.00
65173;BME280;69059;52.218;5.172;2023-04-22T04:24:24;98820.69;;;7.03;100.00
65173;BME280;69059;52.218;5.172;2023-04-22T04:26:52;98819.47;;;6.99;100.00
65173;BME280;69059;52.218;5.172;2023-04-22T04:29:20;98809.50;;;7.03;100.00
65173;BME280;69059;52.218;5.172;2023-04-22T04:31:49;98802.72;;;7.02;100.00
65173;BME280;69059;52.218;5.172;2023-04-22T04:34:18;98798.94;;;7.04;100.00
65173;BME280;69059;52.218;5.172;2023-04-22T04:36:46;98802.28;;;7.11;100.00
65173;BME280;69059;52.218;5.172;2023-04-22T04:39:14;98795.50;;;7.10;100.00
65173;BME280;69059;52.218;5.172;2023-04-22T04:41:44;98806.31;;;7.01;100.00
65173;BME280;69059;52.218;5.172;2023-04-22T04:44:14;98795.94;;;7.07;100.00
65173;BME280;69059;52.218;5.172;2023-04-22T04:46:42;98790.31;;;7.10;100.00
65173;BME280;69059;52.218;5.172;2023-04-22T04:49:12;98787.72;;;7.17;100.00
65173;BME280;69059;52.218;5.172;2023-04-22T04:51:41;98787.88;;;7.22;100.00
65173;BME280;69059;52.218;5.172;2023-04-22T04:54:09;98787.47;;;7.25;100.00
65173;BME280;69059;52.218;5.172;2023-04-22T04:56:36;98784.06;;;7.25;100.00
65173;BME280;69059;52.218;5.172;2023-04-22T04:59:04;98769.94;;;7.21;100.00
65173;BME280;69059;52.218;5.172;2023-04-22T05:01:32;98781.28;;;7.26;100.00
65173;BME280;69059;52.218;5.172;2023-04-22T05:04:00;98784.22;;;7.36;100.00
65173;BME280;69059;52.218;5.172;2023-04-22T05:06:28;98783.59;;;7.41;100.00
65173;BME280;69059;52.218;5.172;2023-04-22T05:08:58;98789.19;;;7.44;100.00
65173;BME280;69059;52.218;5.172;2023-04-22T05:11:25;98792.59;;;7.45;100.00
65173;BME280;69059;52.218;5.172;2023-04-22T05:13:55;98800.38;;;7.45;100.00
65173;BME280;69059;52.218;5.172;2023-04-22T05:16:23;98799.31;;;7.52;100.00
65173;BME280;69059;52.218;5.172;2023-04-22T05:18:51;98793.72;;;7.55;100.00
65173;BME280;69059;52.218;5.172;2023-04-22T05:21:18;98800.09;;;7.60;100.00
65173;BME280;69059;52.218;5.172;2023-04-22T05:23:46;98806.44;;;7.64;100.00
65173;BME280;69059;52.218;5.172;2023-04-22T05:26:16;98802.44;;;7.68;100.00
65173;BME280;69059;52.218;5.172;2023-04-22T05:28:43;98790.66;;;7.72;100.00
65173;BME280;69059;52.218;5.172;2023-04-22T05:31:11;98794.59;;;7.74;100.00
65173;BME280;69059;52.218;5.172;2023-04-22T05:33:38;98791.00;;;7.75;100.00
65173;BME280;69059;52.218;5.172;2023-04-22T05:36:06;98786.19;;;7.79;100.00
65173;BME280;69059;52.218;5.172;2023-04-22T05:38:34;98776.97;;;7.83;100.00
65173;BME280;69059;52.218;5.172;2023-04-22T05:41:02;98781.72;;;7.86;100.00
65173;BME280;69059;52.218;5.172;2023-04-22T05:43:31;98781.91;;;7.91;100.00
65173;BME280;69059;52.218;5.172;2023-04-22T05:45:59;98766.50;;;7.96;100.00
65173;BME280;69059;52.218;5.172;2023-04-22T05:48:27;98761.94;;;7.91;100.00
65173;BME280;69059;52.218;5.172;2023-04-22T05:50:54;98769.03;;;8.03;100.00
65173;BME280;69059;52.218;5.172;2023-04-22T05:53:22;98764.63;;;8.03;100.00
65173;BME280;69059;52.218;5.172;2023-04-22T05:55:50;98754.63;;;8.07;100.00
65173;BME280;69059;52.218;5.172;2023-04-22T05:58:17;98742.00;;;8.10;100.00
65173;BME280;69059;52.218;5.172;2023-04-22T06:00:46;98727.94;;;8.18;100.00
65173;BME280;69059;52.218;5.172;2023-04-22T06:03:14;98717.72;;;8.23;100.00
65173;BME280;69059;52.218;5.172;2023-04-22T06:05:42;98714.03;;;8.31;100.00
65173;BME280;69059;52.218;5.172;2023-04-22T06:08:10;98719.44;;;8.29;100.00
65173;BME280;69059;52.218;5.172;2023-04-22T06:10:38;98701.22;;;8.36;100.00
65173;BME280;69059;52.218;5.172;2023-04-22T06:13:06;98695.13;;;8.42;100.00
65173;BME280;69059;52.218;5.172;2023-04-22T06:15:34;98680.22;;;8.31;100.00
65173;BME280;69059;52.218;5.172;2023-04-22T06:18:04;98674.03;;;8.32;100.00
65173;BME280;69059;52.218;5.172;2023-04-22T06:20:31;98674.63;;;8.52;100.00
65173;BME280;69059;52.218;5.172;2023-04-22T06:23:01;98654.25;;;8.49;100.00
65173;BME280;69059;52.218;5.172;2023-04-22T06:25:30;98644.16;;;8.59;100.00
65173;BME280;69059;52.218;5.172;2023-04-22T06:27:58;98634.88;;;8.63;100.00
65173;BME280;69059;52.218;5.172;2023-04-22T06:30:26;98611.47;;;8.63;100.00
65173;BME280;69059;52.218;5.172;2023-04-22T06:32:54;98593.59;;;8.85;100.00
65173;BME280;69059;52.218;5.172;2023-04-22T06:35:23;98576.19;;;8.85;100.00
65173;BME280;69059;52.218;5.172;2023-04-22T06:37:51;98564.75;;;8.86;100.00
65173;BME280;69059;52.218;5.172;2023-04-22T06:40:19;98529.59;;;9.07;100.00
65173;BME280;69059;52.218;5.172;2023-04-22T06:42:47;98503.59;;;9.19;100.00
65173;BME280;69059;52.218;5.172;2023-04-22T06:45:14;98472.34;;;9.19;100.00
65173;BME280;69059;52.218;5.172;2023-04-22T06:47:42;98476.97;;;9.28;100.00
65173;BME280;69059;52.218;5.172;2023-04-22T06:50:10;98470.53;;;9.43;100.00
65173;BME280;69059;52.218;5.172;2023-04-22T06:52:39;98463.16;;;9.51;100.00
65173;BME280;69059;52.218;5.172;2023-04-22T06:55:08;98455.00;;;9.59;100.00
65173;BME280;69059;52.218;5.172;2023-04-22T06:57:35;98431.72;;;9.81;100.00
65173;BME280;69059;52.218;5.172;2023-04-22T07:00:04;98432.75;;;9.80;100.00
65173;BME280;69059;52.218;5.172;2023-04-22T07:02:33;98416.31;;;9.80;100.00
65173;BME280;69059;52.218;5.172;2023-04-22T07:05:02;98410.38;;;9.96;100.00
65173;BME280;69059;52.218;5.172;2023-04-22T07:07:29;98383.66;;;10.17;100.00
65173;BME280;69059;52.218;5.172;2023-04-22T07:09:59;98403.94;;;10.15;100.00
65173;BME280;69059;52.218;5.172;2023-04-22T07:12:26;98401.88;;;10.29;100.00
65173;BME280;69059;52.218;5.172;2023-04-22T07:14:54;98407.97;;;10.34;100.00
65173;BME280;69059;52.218;5.172;2023-04-22T07:17:22;98383.06;;;10.44;100.00
65173;BME280;69059;52.218;5.172;2023-04-22T07:19:50;98401.44;;;10.49;100.00
65173;BME280;69059;52.218;5.172;2023-04-22T07:22:18;98417.69;;;10.39;100.00
65173;BME280;69059;52.218;5.172;2023-04-22T07:24:46;98419.75;;;10.37;100.00
65173;BME280;69059;52.218;5.172;2023-04-22T07:27:15;98435.13;;;10.22;100.00
65173;BME280;69059;52.218;5.172;2023-04-22T07:29:43;98403.41;;;10.75;100.00
65173;BME280;69059;52.218;5.172;2023-04-22T07:32:11;98377.25;;;11.08;100.00
65173;BME280;69059;52.218;5.172;2023-04-22T07:34:39;98352.38;;;11.23;100.00
65173;BME280;69059;52.218;5.172;2023-04-22T07:37:07;98350.13;;;11.31;100.00
65173;BME280;69059;52.218;5.172;2023-04-22T07:39:34;98366.78;;;11.47;100.00
65173;BME280;69059;52.218;5.172;2023-04-22T07:42:03;98373.78;;;11.63;100.00
65173;BME280;69059;52.218;5.172;2023-04-22T07:44:32;98370.78;;;11.98;100.00
65173;BME280;69059;52.218;5.172;2023-04-22T07:47:01;98367.56;;;12.18;100.00
65173;BME280;69059;52.218;5.172;2023-04-22T07:49:29;98386.47;;;12.25;100.00
65173;BME280;69059;52.218;5.172;2023-04-22T07:51:57;98422.84;;;12.27;100.00
65173;BME280;69059;52.218;5.172;2023-04-22T07:54:25;98472.53;;;12.00;100.00
65173;BME280;69059;52.218;5.172;2023-04-22T07:56:52;98528.31;;;11.50;100.00
65173;BME280;69059;52.218;5.172;2023-04-22T07:59:20;98519.56;;;11.61;100.00
65173;BME280;69059;52.218;5.172;2023-04-22T08:01:49;98523.81;;;11.67;100.00
65173;BME280;69059;52.218;5.172;2023-04-22T08:04:18;98511.53;;;12.06;100.00
65173;BME280;69059;52.218;5.172;2023-04-22T08:06:46;98530.75;;;12.17;100.00
65173;BME280;69059;52.218;5.172;2023-04-22T08:09:13;98564.88;;;11.83;100.00
65173;BME280;69059;52.218;5.172;2023-04-22T08:11:41;98559.72;;;11.55;100.00
65173;BME280;69059;52.218;5.172;2023-04-22T08:14:09;98561.22;;;11.68;100.00
65173;BME280;69059;52.218;5.172;2023-04-22T08:16:38;98536.50;;;12.14;100.00
65173;BME280;69059;52.218;5.172;2023-04-22T08:19:08;98562.81;;;12.07;100.00
65173;BME280;69059;52.218;5.172;2023-04-22T08:21:36;98572.38;;;12.18;100.00
65173;BME280;69059;52.218;5.172;2023-04-22T08:24:05;98594.75;;;12.31;100.00
65173;BME280;69059;52.218;5.172;2023-04-22T08:26:33;98565.66;;;12.98;100.00
65173;BME280;69059;52.218;5.172;2023-04-22T08:29:02;98568.47;;;13.50;100.00
65173;BME280;69059;52.218;5.172;2023-04-22T08:31:30;98638.97;;;13.20;100.00
65173;BME280;69059;52.218;5.172;2023-04-22T08:33:58;98618.81;;;13.94;100.00
65173;BME280;69059;52.218;5.172;2023-04-22T08:36:27;98614.31;;;15.04;100.00
65173;BME280;69059;52.218;5.172;2023-04-22T08:38:54;98694.84;;;15.82;100.00
65173;BME280;69059;52.218;5.172;2023-04-22T08:41:22;98784.56;;;16.36;100.00
65173;BME280;69059;52.218;5.172;2023-04-22T08:43:51;98908.09;;;16.58;100.00
65173;BME280;69059;52.218;5.172;2023-04-22T08:46:20;99025.53;;;16.38;100.00
65173;BME280;69059;52.218;5.172;2023-04-22T08:48:50;99085.16;;;15.60;100.00
65173;BME280;69059;52.218;5.172;2023-04-22T08:51:17;99074.13;;;16.83;100.00
65173;BME280;69059;52.218;5.172;2023-04-22T08:53:47;99240.25;;;17.03;100.00
65173;BME280;69059;52.218;5.172;2023-04-22T08:56:15;99122.41;;;17.90;100.00
65173;BME280;69059;52.218;5.172;2023-04-22T08:58:43;99144.66;;;18.64;100.00
65173;BME280;69059;52.218;5.172;2023-04-22T09:01:12;99290.78;;;18.79;100.00
65173;BME280;69059;52.218;5.172;2023-04-22T09:03:40;99186.66;;;18.70;100.00
65173;BME280;69059;52.218;5.172;2023-04-22T09:06:09;99312.44;;;18.96;100.00
65173;BME280;69059;52.218;5.172;2023-04-22T09:08:37;99343.06;;;19.08;100.00
65173;BME280;69059;52.218;5.172;2023-04-22T09:11:06;99431.50;;;19.66;100.00
65173;BME280;69059;52.218;5.172;2023-04-22T09:13:35;99566.09;;;18.20;100.00
65173;BME280;69059;52.218;5.172;2023-04-22T09:16:02;99455.53;;;17.72;100.00
65173;BME280;69059;52.218;5.172;2023-04-22T09:18:38;99506.00;;;18.68;100.00
65173;BME280;69059;52.218;5.172;2023-04-22T09:21:06;99552.34;;;18.18;100.00
65173;BME280;69059;52.218;5.172;2023-04-22T09:23:43;99498.97;;;18.16;100.00
65173;BME280;69059;52.218;5.172;2023-04-22T09:26:13;99526.63;;;18.91;100.00
65173;BME280;69059;52.218;5.172;2023-04-22T09:28:48;99460.47;;;18.36;100.00
65173;BME280;69059;52.218;5.172;2023-04-22T09:31:16;99556.00;;;17.60;100.00
65173;BME280;69059;52.218;5.172;2023-04-22T09:33:47;99443.41;;;17.81;100.00
65173;BME280;69059;52.218;5.172;2023-04-22T09:36:15;99501.22;;;18.75;100.00
65173;BME280;69059;52.218;5.172;2023-04-22T09:38:53;99518.44;;;18.73;100.00
65173;BME280;69059;52.218;5.172;2023-04-22T09:41:29;99522.38;;;19.26;100.00
65173;BME280;69059;52.218;5.172;2023-04-22T09:43:58;99609.75;;;18.38;100.00
65173;BME280;69059;52.218;5.172;2023-04-22T09:46:27;99534.44;;;18.36;100.00
65173;BME280;69059;52.218;5.172;2023-04-22T09:48:56;99512.59;;;17.83;100.00
65173;BME280;69059;52.218;5.172;2023-04-22T09:51:26;99353.25;;;19.50;100.00
65173;BME280;69059;52.218;5.172;2023-04-22T09:53:58;99348.56;;;21.06;100.00
65173;BME280;69059;52.218;5.172;2023-04-22T09:56:40;99499.19;;;21.49;100.00
65173;BME280;69059;52.218;5.172;2023-04-22T09:59:08;99576.41;;;22.29;100.00
65173;BME280;69059;52.218;5.172;2023-04-22T10:01:38;99668.13;;;22.02;100.00
65173;BME280;69059;52.218;5.172;2023-04-22T10:04:07;99709.09;;;21.91;100.00
65173;BME280;69059;52.218;5.172;2023-04-22T10:06:35;99747.06;;;22.02;100.00
65173;BME280;69059;52.218;5.172;2023-04-22T10:09:03;99799.00;;;21.40;100.00
65173;BME280;69059;52.218;5.172;2023-04-22T10:11:35;99853.91;;;20.60;100.00
65173;BME280;69059;52.218;5.172;2023-04-22T10:14:04;99755.75;;;20.65;100.00
65173;BME280;69059;52.218;5.172;2023-04-22T10:16:33;99816.88;;;22.12;100.00
65173;BME280;69059;52.218;5.172;2023-04-22T10:19:03;99819.63;;;23.69;100.00
65173;BME280;69059;52.218;5.172;2023-04-22T10:21:33;100066.34;;;23.17;100.00
65173;BME280;69059;52.218;5.172;2023-04-22T10:24:02;100035.72;;;21.88;100.00
65173;BME280;69059;52.218;5.172;2023-04-22T10:26:38;100017.50;;;22.20;100.00
65173;BME280;69059;52.218;5.172;2023-04-22T10:29:12;100057.25;;;23.52;100.00
65173;BME280;69059;52.218;5.172;2023-04-22T10:31:42;100103.19;;;23.92;100.00
65173;BME280;69059;52.218;5.172;2023-04-22T10:34:12;100117.94;;;24.32;100.00
65173;BME280;69059;52.218;5.172;2023-04-22T10:36:54;100124.69;;;23.77;100.00
65173;BME280;69059;52.218;5.172;2023-04-22T10:39:23;100191.41;;;21.94;100.00
65173;BME280;69059;52.218;5.172;2023-04-22T10:41:53;100098.22;;;21.50;100.00
65173;BME280;69059;52.218;5.172;2023-04-22T10:44:27;100131.16;;;21.38;100.00
65173;BME280;69059;52.218;5.172;2023-04-22T10:47:00;99959.78;;;21.76;100.00
65173;BME280;69059;52.218;5.172;2023-04-22T10:49:31;99880.97;;;22.69;100.00
65173;BME280;69059;52.218;5.172;2023-04-22T10:52:00;99994.47;;;23.41;100.00
65173;BME280;69059;52.218;5.172;2023-04-22T10:54:57;100008.50;;;23.23;100.00
65173;BME280;69059;52.218;5.172;2023-04-22T10:57:37;100030.31;;;23.25;100.00
65173;BME280;69059;52.218;5.172;2023-04-22T11:00:38;100090.53;;;22.38;100.00
65173;BME280;69059;52.218;5.172;2023-04-22T11:03:24;100119.47;;;19.74;100.00
65173;BME280;69059;52.218;5.172;2023-04-22T11:06:14;100025.91;;;19.26;100.00
65173;BME280;69059;52.218;5.172;2023-04-22T11:08:46;99962.13;;;18.54;100.00
65173;BME280;69059;52.218;5.172;2023-04-22T11:11:15;99625.81;;;19.04;100.00
65173;BME280;69059;52.218;5.172;2023-04-22T11:13:46;99676.34;;;18.98;100.00
65173;BME280;69059;52.218;5.172;2023-04-22T11:16:20;99619.63;;;18.63;100.00
65173;BME280;69059;52.218;5.172;2023-04-22T11:18:48;99698.03;;;19.15;100.00
65173;BME280;69059;52.218;5.172;2023-04-22T11:21:16;99720.09;;;18.21;100.00
65173;BME280;69059;52.218;5.172;2023-04-22T11:23:48;99625.47;;;18.13;100.00
65173;BME280;69059;52.218;5.172;2023-04-22T11:26:16;99592.59;;;18.41;100.00
65173;BME280;69059;52.218;5.172;2023-04-22T11:28:44;99637.47;;;17.83;100.00
65173;BME280;69059;52.218;5.172;2023-04-22T11:31:13;99620.78;;;17.73;100.00
65173;BME280;69059;52.218;5.172;2023-04-22T11:33:43;99539.91;;;18.14;100.00
65173;BME280;69059;52.218;5.172;2023-04-22T11:36:14;99444.91;;;18.75;100.00
65173;BME280;69059;52.218;5.172;2023-04-22T11:38:53;99546.72;;;19.13;100.00
65173;BME280;69059;52.218;5.172;2023-04-22T11:41:20;99521.34;;;19.22;100.00
65173;BME280;69059;52.218;5.172;2023-04-22T11:43:49;99556.53;;;19.22;100.00
65173;BME280;69059;52.218;5.172;2023-04-22T11:46:27;99625.00;;;19.04;100.00
65173;BME280;69059;52.218;5.172;2023-04-22T11:49:10;99640.84;;;18.88;100.00
65173;BME280;69059;52.218;5.172;2023-04-22T11:51:51;99691.91;;;17.31;100.00
65173;BME280;69059;52.218;5.172;2023-04-22T11:54:29;99616.88;;;16.90;100.00
65173;BME280;69059;52.218;5.172;2023-04-22T11:56:56;99535.69;;;16.92;100.00
65173;BME280;69059;52.218;5.172;2023-04-22T11:59:24;99386.25;;;16.01;100.00
65173;BME280;69059;52.218;5.172;2023-04-22T12:01:52;99205.91;;;16.36;100.00
65173;BME280;69059;52.218;5.172;2023-04-22T12:04:21;99110.19;;;16.67;100.00
65173;BME280;69059;52.218;5.172;2023-04-22T12:06:50;99119.78;;;15.84;100.00
65173;BME280;69059;52.218;5.172;2023-04-22T12:09:18;99003.78;;;15.91;100.00
65173;BME280;69059;52.218;5.172;2023-04-22T12:11:51;98948.03;;;16.09;100.00
65173;BME280;69059;52.218;5.172;2023-04-22T12:14:18;98954.56;;;15.96;100.00
65173;BME280;69059;52.218;5.172;2023-04-22T12:16:46;98942.00;;;15.51;100.00
65173;BME280;69059;52.218;5.172;2023-04-22T12:19:14;98881.38;;;15.78;100.00
65173;BME280;69059;52.218;5.172;2023-04-22T12:21:43;98872.47;;;15.94;100.00
65173;BME280;69059;52.218;5.172;2023-04-22T12:24:11;98914.66;;;15.52;100.00
65173;BME280;69059;52.218;5.172;2023-04-22T12:26:40;98865.94;;;15.39;100.00
65173;BME280;69059;52.218;5.172;2023-04-22T12:29:08;98866.59;;;15.57;100.00
65173;BME280;69059;52.218;5.172;2023-04-22T12:31:36;98831.38;;;15.83;100.00
65173;BME280;69059;52.218;5.172;2023-04-22T12:34:04;98837.75;;;16.02;100.00
65173;BME280;69059;52.218;5.172;2023-04-22T12:36:32;98847.16;;;15.68;100.00
65173;BME280;69059;52.218;5.172;2023-04-22T12:39:01;98848.59;;;15.38;100.00
65173;BME280;69059;52.218;5.172;2023-04-22T12:41:30;98829.25;;;15.02;100.00
65173;BME280;69059;52.218;5.172;2023-04-22T12:43:57;98800.16;;;14.72;100.00
65173;BME280;69059;52.218;5.172;2023-04-22T12:46:25;98757.78;;;14.16;100.00
65173;BME280;69059;52.218;5.172;2023-04-22T12:48:53;98690.22;;;13.65;100.00
65173;BME280;69059;52.218;5.172;2023-04-22T12:51:21;98585.22;;;13.86;100.00
65173;BME280;69059;52.218;5.172;2023-04-22T12:53:48;98522.25;;;14.44;100.00
65173;BME280;69059;52.218;5.172;2023-04-22T12:56:17;98513.06;;;14.41;100.00
65173;BME280;69059;52.218;5.172;2023-04-22T12:58:46;98519.09;;;14.57;100.00
65173;BME280;69059;52.218;5.172;2023-04-22T13:01:14;98511.28;;;14.87;100.00
65173;BME280;69059;52.218;5.172;2023-04-22T13:03:41;98536.25;;;14.80;100.00